Time;durP1;ratioP1;P1;durP2;ratioP2;P2;SDS_P1;SDS_P2;PMS_P1;PMS_P2;Temp;Humidity;BMP_temperature;BMP_pressure;BME280_temperature;BME280_humidity;BME280_pressure;Samples;Min_cycle;Max_cycle;Signal;HPM_P1;HPM_P2
2023/07/31 00:00:10;;;;;;;3.20;2.60;;;16.10;99.90;;;;;;5014577;28;20490;-61
2023/07/31 00:02:37;;;;;;;3.87;3.20;;;16.10;99.90;;;;;;5014846;28;20438;-60
2023/07/31 00:05:04;;;;;;;2.73;2.43;;;16.20;99.90;;;;;;5014734;28;20438;-60
2023/07/31 00:07:33;;;;;;;3.63;2.60;;;16.20;99.90;;;;;;5014583;28;20438;-61
2023/07/31 00:10:01;;;;;;;3.70;2.77;;;16.20;99.90;;;;;;5014431;28;20442;-60
2023/07/31 00:12:28;;;;;;;3.37;2.53;;;16.20;99.90;;;;;;5014481;28;20546;-61
2023/07/31 00:14:54;;;;;;;2.73;2.43;;;16.20;99.90;;;;;;5014743;28;20532;-62
2023/07/31 00:17:21;;;;;;;4.60;3.13;;;16.20;99.90;;;;;;5014151;28;20488;-61
2023/07/31 00:19:50;;;;;;;3.60;2.40;;;16.20;99.90;;;;;;5014537;28;20442;-61
2023/07/31 00:22:17;;;;;;;3.97;2.70;;;16.10;99.90;;;;;;5014210;28;20558;-61
2023/07/31 00:24:44;;;;;;;2.83;2.30;;;16.10;99.90;;;;;;5013945;28;20449;-60
2023/07/31 00:27:12;;;;;;;3.57;3.20;;;16.10;99.90;;;;;;5015068;28;20438;-61
2023/07/31 00:29:39;;;;;;;3.83;2.70;;;16.20;99.90;;;;;;5018205;28;20528;-60
2023/07/31 00:32:06;;;;;;;2.80;2.43;;;16.20;99.90;;;;;;5017911;28;20469;-61
2023/07/31 00:34:33;;;;;;;3.60;2.40;;;16.20;99.90;;;;;;5017666;28;20453;-60
2023/07/31 00:37:00;;;;;;;5.13;2.40;;;16.20;99.90;;;;;;5018463;28;20505;-61
2023/07/31 00:39:27;;;;;;;3.40;2.67;;;16.20;99.90;;;;;;5017885;28;20452;-61
2023/07/31 00:41:54;;;;;;;3.33;1.83;;;16.20;99.90;;;;;;5018540;28;20485;-62
2023/07/31 00:44:22;;;;;;;4.60;3.03;;;16.20;99.90;;;;;;5017930;28;20537;-60
2023/07/31 00:46:49;;;;;;;6.40;2.33;;;16.20;99.90;;;;;;5018072;28;20437;-62
2023/07/31 00:49:16;;;;;;;4.93;2.60;;;16.20;99.90;;;;;;5018541;28;20445;-61
2023/07/31 00:51:43;;;;;;;3.70;2.53;;;16.20;99.90;;;;;;5018756;28;21022;-61
2023/07/31 00:54:11;;;;;;;2.73;2.43;;;16.20;99.90;;;;;;5018466;28;20445;-61
2023/07/31 00:56:38;;;;;;;3.90;2.70;;;16.20;99.90;;;;;;5018080;28;20485;-60
2023/07/31 00:59:05;;;;;;;5.50;2.37;;;16.20;99.90;;;;;;5019136;28;20442;-62
2023/07/31 01:01:33;;;;;;;2.97;2.50;;;16.20;99.90;;;;;;5017421;28;20464;-61
2023/07/31 01:04:00;;;;;;;5.53;2.23;;;16.30;99.90;;;;;;5017387;28;20540;-61
2023/07/31 01:06:34;;;;;;;2.90;2.03;;;16.20;99.90;;;;;;5017203;28;20940;-60
2023/07/31 01:09:04;;;;;;;4.13;3.63;;;16.20;99.90;;;;;;5017130;28;20430;-61
2023/07/31 01:11:34;;;;;;;2.47;2.27;;;16.30;99.90;;;;;;5017255;28;20469;-60
2023/07/31 01:14:01;;;;;;;4.13;2.67;;;16.30;99.90;;;;;;5017269;28;20445;-61
2023/07/31 01:16:28;;;;;;;2.77;2.20;;;16.20;99.90;;;;;;5018307;28;20445;-60
2023/07/31 01:18:56;;;;;;;3.13;1.90;;;16.20;99.90;;;;;;5016424;28;20449;-61
2023/07/31 01:21:46;;;;;;;2.00;1.80;;;16.20;99.90;;;;;;5016946;28;20466;-61
2023/07/31 01:24:26;;;;;;;1.80;1.40;;;16.20;99.90;;;;;;5016955;28;20425;-61
2023/07/31 01:26:58;;;;;;;2.80;1.80;;;16.20;99.90;;;;;;5017724;28;20430;-60
2023/07/31 01:29:33;;;;;;;2.40;2.20;;;16.20;99.90;;;;;;5018681;28;20557;-60
2023/07/31 01:32:02;;;;;;;1.90;1.73;;;16.20;99.90;;;;;;5020450;28;20465;-61
2023/07/31 01:34:29;;;;;;;2.50;1.97;;;16.10;99.90;;;;;;5018570;28;20442;-60
2023/07/31 01:36:57;;;;;;;2.70;2.13;;;16.10;99.90;;;;;;5016568;28;20489;-60
2023/07/31 01:39:23;;;;;;;3.40;1.80;;;16.10;99.90;;;;;;5015340;28;20453;-61
2023/07/31 01:41:50;;;;;;;2.40;1.97;;;16.10;99.90;;;;;;5016518;28;20488;-61
2023/07/31 01:44:18;;;;;;;2.87;1.60;;;16.10;99.90;;;;;;5016347;28;20945;-60
2023/07/31 01:46:45;;;;;;;3.20;1.97;;;16.10;99.90;;;;;;5016490;28;20447;-60
2023/07/31 01:49:12;;;;;;;2.87;1.57;;;16.10;99.90;;;;;;5016503;28;20533;-61
2023/07/31 01:51:39;;;;;;;3.40;2.33;;;16.00;99.90;;;;;;5016436;28;20827;-62
2023/07/31 01:54:06;;;;;;;2.60;1.93;;;16.00;99.90;;;;;;5016559;28;20450;-60
2023/07/31 01:56:32;;;;;;;2.50;2.30;;;16.00;99.90;;;;;;5015761;28;20910;-60
2023/07/31 01:58:59;;;;;;;5.40;2.13;;;16.00;99.90;;;;;;5016388;28;20448;-61
2023/07/31 02:01:27;;;;;;;2.50;1.70;;;16.00;99.90;;;;;;5015883;28;20557;-60
2023/07/31 02:03:54;;;;;;;3.07;1.60;;;16.00;99.90;;;;;;5016627;28;20819;-60
2023/07/31 02:06:22;;;;;;;2.80;1.60;;;16.00;99.90;;;;;;5016568;28;20452;-60
2023/07/31 02:08:49;;;;;;;2.70;1.50;;;16.00;99.90;;;;;;5016151;28;20503;-60
2023/07/31 02:11:16;;;;;;;1.20;1.10;;;15.90;99.90;;;;;;5015777;28;20556;-61
2023/07/31 02:13:42;;;;;;;1.50;1.30;;;15.90;99.90;;;;;;5015756;28;20450;-61
2023/07/31 02:16:09;;;;;;;4.57;1.60;;;15.90;99.90;;;;;;5015837;28;20449;-60
2023/07/31 02:18:37;;;;;;;2.87;1.80;;;15.90;99.90;;;;;;5015800;28;20485;-60
2023/07/31 02:21:04;;;;;;;1.63;1.50;;;15.90;99.90;;;;;;5015933;28;20501;-61
2023/07/31 02:23:31;;;;;;;2.53;1.87;;;15.90;99.90;;;;;;5016906;28;20441;-62
2023/07/31 02:25:58;;;;;;;3.40;1.93;;;15.90;99.90;;;;;;5016370;28;20944;-60
2023/07/31 02:28:25;;;;;;;2.70;1.70;;;15.90;99.90;;;;;;5015890;28;20434;-60
2023/07/31 02:30:52;;;;;;;1.67;1.57;;;15.90;99.90;;;;;;5015873;28;20472;-61
2023/07/31 02:33:19;;;;;;;2.00;1.43;;;16.00;99.90;;;;;;5015896;28;20477;-60
2023/07/31 02:35:47;;;;;;;2.90;1.40;;;16.00;99.90;;;;;;5016113;28;20461;-60
2023/07/31 02:38:14;;;;;;;3.17;1.30;;;16.00;99.90;;;;;;5014861;28;20484;-61
2023/07/31 02:40:41;;;;;;;1.30;1.20;;;16.00;99.90;;;;;;5015127;28;20477;-61
2023/07/31 02:43:08;;;;;;;1.60;1.30;;;16.00;99.90;;;;;;5015503;28;20426;-60
2023/07/31 02:45:35;;;;;;;4.60;1.40;;;16.00;99.90;;;;;;5015106;28;20442;-60
2023/07/31 02:48:01;;;;;;;1.43;1.10;;;16.00;99.90;;;;;;5015225;28;20446;-61
2023/07/31 02:50:28;;;;;;;1.47;1.30;;;16.00;99.90;;;;;;5013551;28;20466;-60
2023/07/31 02:52:56;;;;;;;1.20;1.10;;;16.00;99.90;;;;;;5014600;28;20450;-60
2023/07/31 02:55:23;;;;;;;3.00;1.20;;;16.00;99.90;;;;;;5014520;28;20446;-60
2023/07/31 02:57:51;;;;;;;1.60;1.50;;;16.00;99.90;;;;;;5014890;28;20488;-60
2023/07/31 03:00:18;;;;;;;2.20;1.50;;;15.90;99.90;;;;;;5014254;28;20533;-60
2023/07/31 03:02:45;;;;;;;2.60;1.93;;;16.00;99.90;;;;;;5014507;28;20449;-60
2023/07/31 03:05:12;;;;;;;2.67;1.47;;;15.90;99.90;;;;;;5014243;28;20457;-60
2023/07/31 03:07:39;;;;;;;1.83;1.73;;;15.90;99.90;;;;;;5014441;28;20450;-60
2023/07/31 03:10:08;;;;;;;2.07;1.27;;;15.90;99.90;;;;;;5013721;28;20452;-60
2023/07/31 03:12:35;;;;;;;2.20;1.90;;;15.90;99.90;;;;;;5013940;28;20449;-61
2023/07/31 03:15:02;;;;;;;2.33;1.60;;;15.90;99.90;;;;;;5013952;28;20453;-60
2023/07/31 03:17:29;;;;;;;2.47;1.47;;;15.90;99.90;;;;;;5014058;28;20504;-59
2023/07/31 03:19:55;;;;;;;0.97;0.93;;;15.90;99.90;;;;;;5013684;28;20809;-60
2023/07/31 03:22:22;;;;;;;1.53;1.30;;;15.90;99.90;;;;;;5013569;28;20840;-60
2023/07/31 03:24:49;;;;;;;1.27;1.17;;;15.90;99.90;;;;;;5013932;28;20446;-60
2023/07/31 03:27:17;;;;;;;1.90;1.30;;;15.90;99.90;;;;;;5013855;28;20444;-61
2023/07/31 03:29:44;;;;;;;1.97;1.40;;;15.90;99.90;;;;;;5014175;28;20446;-61
2023/07/31 03:32:10;;;;;;;3.20;1.50;;;15.90;99.90;;;;;;5013844;28;20472;-60
2023/07/31 03:34:37;;;;;;;1.50;1.33;;;15.90;99.90;;;;;;5013614;28;20445;-60
2023/07/31 03:37:05;;;;;;;1.70;1.60;;;15.90;99.90;;;;;;5013470;28;20450;-60
2023/07/31 03:39:32;;;;;;;2.50;1.83;;;15.90;99.90;;;;;;5014561;28;20473;-61
2023/07/31 03:41:59;;;;;;;3.13;1.40;;;15.90;99.90;;;;;;5014205;28;20496;-60
2023/07/31 03:44:27;;;;;;;1.90;1.53;;;15.90;99.90;;;;;;5014309;28;20446;-61
2023/07/31 03:46:54;;;;;;;2.00;1.70;;;15.90;99.90;;;;;;5013742;28;20438;-60
2023/07/31 03:49:20;;;;;;;2.63;1.70;;;15.90;99.90;;;;;;5013994;28;20444;-60
2023/07/31 03:51:47;;;;;;;1.50;1.40;;;15.90;99.90;;;;;;5014516;28;20596;-61
2023/07/31 03:54:14;;;;;;;1.77;1.50;;;15.90;99.90;;;;;;5015827;28;20452;-61
2023/07/31 03:56:41;;;;;;;2.63;1.97;;;15.90;99.90;;;;;;5014865;28;20441;-60
2023/07/31 03:59:08;;;;;;;2.60;2.40;;;15.90;99.90;;;;;;5014656;28;20861;-59
2023/07/31 04:01:36;;;;;;;1.60;1.50;;;15.90;99.90;;;;;;5014918;28;20484;-61
2023/07/31 04:04:03;;;;;;;1.70;1.57;;;15.90;99.90;;;;;;5016061;28;20448;-60
2023/07/31 04:06:29;;;;;;;6.37;2.20;;;15.90;99.90;;;;;;5014365;28;20438;-61
2023/07/31 04:12:01;;;;;;;2.07;1.57;;;15.90;99.90;;;;;;5093759;27;20569;-61
2023/07/31 04:14:28;;;;;;;2.50;1.60;;;15.80;99.90;;;;;;5092443;28;20434;-61
2023/07/31 04:16:54;;;;;;;1.40;1.30;;;15.80;99.90;;;;;;5092513;28;20449;-61
2023/07/31 04:19:21;;;;;;;1.93;1.20;;;15.80;99.90;;;;;;5092988;28;20439;-61
2023/07/31 04:21:48;;;;;;;1.40;1.30;;;15.80;99.90;;;;;;5091082;28;20458;-62
2023/07/31 04:24:15;;;;;;;1.70;1.60;;;15.70;99.90;;;;;;5091043;28;20532;-62
2023/07/31 04:26:41;;;;;;;2.10;1.90;;;15.70;99.90;;;;;;5092513;28;20447;-61
2023/07/31 04:29:09;;;;;;;3.90;3.20;;;15.70;99.90;;;;;;5091229;28;20441;-59
2023/07/31 04:31:36;;;;;;;3.30;1.70;;;15.70;99.90;;;;;;5090850;28;20489;-62
2023/07/31 04:34:04;;;;;;;1.63;1.53;;;15.80;99.90;;;;;;5091156;28;20451;-61
2023/07/31 04:36:31;;;;;;;3.20;1.60;;;15.80;99.90;;;;;;5090596;28;20439;-61
2023/07/31 04:38:58;;;;;;;2.23;1.37;;;15.80;99.90;;;;;;5090944;28;20445;-60
2023/07/31 04:41:24;;;;;;;2.10;1.47;;;15.80;99.90;;;;;;5090590;28;20450;-62
2023/07/31 04:43:51;;;;;;;2.20;1.67;;;15.80;99.90;;;;;;5090829;28;20454;-61
2023/07/31 04:46:19;;;;;;;3.43;2.13;;;15.80;99.90;;;;;;5090806;28;20436;-61
2023/07/31 04:48:46;;;;;;;2.40;1.70;;;15.80;99.90;;;;;;5090660;28;20451;-61
2023/07/31 04:51:13;;;;;;;1.90;1.60;;;15.80;99.90;;;;;;5090691;28;20486;-61
2023/07/31 04:53:40;;;;;;;3.77;1.70;;;15.80;99.90;;;;;;5090678;28;20516;-60
2023/07/31 04:56:07;;;;;;;2.67;1.87;;;15.80;99.90;;;;;;5091870;28;20538;-61
2023/07/31 04:58:33;;;;;;;1.60;1.20;;;15.80;99.90;;;;;;5092850;28;20440;-61
2023/07/31 05:01:00;;;;;;;1.60;1.20;;;15.80;99.90;;;;;;5092605;28;20462;-62
2023/07/31 05:03:28;;;;;;;1.50;1.20;;;15.80;99.90;;;;;;5093816;28;20437;-61
2023/07/31 05:05:55;;;;;;;1.83;1.10;;;15.70;99.90;;;;;;5092494;28;20446;-60
2023/07/31 05:08:22;;;;;;;1.40;1.00;;;15.70;99.90;;;;;;5091802;28;20449;-61
2023/07/31 05:10:48;;;;;;;2.60;1.30;;;15.70;99.90;;;;;;5094203;28;20481;-60
2023/07/31 05:13:15;;;;;;;1.70;1.10;;;15.70;99.90;;;;;;5092346;28;20449;-60
2023/07/31 05:15:42;;;;;;;1.37;1.27;;;15.70;99.90;;;;;;5093732;28;20445;-61
2023/07/31 05:18:09;;;;;;;2.23;1.10;;;15.70;99.90;;;;;;5094775;28;20453;-61
2023/07/31 05:20:37;;;;;;;2.20;1.40;;;15.60;99.90;;;;;;5093718;28;20457;-59
2023/07/31 05:23:04;;;;;;;2.00;1.03;;;15.60;99.90;;;;;;5078206;28;20447;-60
2023/07/31 05:25:31;;;;;;;1.23;1.13;;;15.60;99.90;;;;;;5076420;28;20945;-61
2023/07/31 05:27:57;;;;;;;1.50;1.10;;;15.60;99.90;;;;;;5076612;28;20435;-60
2023/07/31 05:30:24;;;;;;;2.50;1.80;;;15.60;99.90;;;;;;5077069;28;20483;-61
2023/07/31 05:32:51;;;;;;;2.10;1.50;;;15.60;99.90;;;;;;5077514;28;20476;-61
2023/07/31 05:35:18;;;;;;;2.03;1.83;;;15.70;99.90;;;;;;5077705;28;20461;-62
2023/07/31 05:37:46;;;;;;;1.60;1.50;;;15.70;99.90;;;;;;5077618;28;20944;-60
2023/07/31 05:40:13;;;;;;;1.63;1.37;;;15.70;99.90;;;;;;5079719;28;20450;-62
2023/07/31 05:42:39;;;;;;;2.00;1.63;;;15.70;99.90;;;;;;5079003;28;20435;-60
2023/07/31 05:45:07;;;;;;;3.13;2.50;;;15.70;99.90;;;;;;5077717;28;20539;-60
2023/07/31 05:47:34;;;;;;;3.07;2.10;;;15.70;99.90;;;;;;5076414;28;20434;-61
2023/07/31 05:50:01;;;;;;;2.90;2.70;;;15.70;99.90;;;;;;5076977;28;20526;-62
2023/07/31 05:52:28;;;;;;;3.30;3.00;;;15.80;99.90;;;;;;5075503;28;20963;-61
2023/07/31 05:54:56;;;;;;;4.97;2.77;;;15.80;99.90;;;;;;5075686;28;20439;-60
2023/07/31 05:57:23;;;;;;;4.23;3.20;;;15.80;99.90;;;;;;5078189;28;20541;-61
2023/07/31 05:59:50;;;;;;;5.30;3.80;;;15.80;99.90;;;;;;5079420;28;20442;-61
2023/07/31 06:02:17;;;;;;;6.80;4.80;;;15.80;99.90;;;;;;5075775;28;20451;-61
2023/07/31 06:04:44;;;;;;;6.27;4.80;;;15.80;99.90;;;;;;5076001;28;20435;-60
2023/07/31 06:07:11;;;;;;;5.50;5.00;;;15.90;99.90;;;;;;5075640;28;20438;-60
2023/07/31 06:09:38;;;;;;;7.80;5.30;;;15.90;99.90;;;;;;5076787;28;20470;-60
2023/07/31 06:12:07;;;;;;;10.27;5.17;;;15.90;99.90;;;;;;5075981;28;20483;-61
2023/07/31 06:14:33;;;;;;;6.80;5.00;;;16.00;99.90;;;;;;5075181;28;20530;-61
2023/07/31 06:17:00;;;;;;;10.10;6.37;;;16.00;99.90;;;;;;5076597;28;21039;-60
2023/07/31 06:19:27;;;;;;;9.50;6.83;;;16.10;99.90;;;;;;5082326;28;20466;-62
2023/07/31 06:21:54;;;;;;;12.33;8.00;;;16.10;99.90;;;;;;5081513;28;20474;-59
2023/07/31 06:24:22;;;;;;;9.10;7.07;;;16.10;99.90;;;;;;5078881;28;20439;-61
2023/07/31 06:26:48;;;;;;;9.50;7.87;;;16.20;99.90;;;;;;5077678;28;20440;-61
2023/07/31 06:29:16;;;;;;;7.60;6.80;;;16.20;99.90;;;;;;5077849;28;20444;-60
2023/07/31 06:31:43;;;;;;;9.67;7.13;;;16.20;99.90;;;;;;5076560;28;21001;-62
2023/07/31 06:34:10;;;;;;;10.63;7.40;;;16.20;99.90;;;;;;5076096;28;20739;-61
2023/07/31 06:36:37;;;;;;;9.07;6.67;;;16.10;99.90;;;;;;5076992;28;20446;-58
2023/07/31 06:39:04;;;;;;;11.10;6.47;;;16.10;99.90;;;;;;5076549;28;20450;-60
2023/07/31 06:41:30;;;;;;;8.37;6.87;;;16.10;99.90;;;;;;5079265;28;20516;-62
2023/07/31 06:43:57;;;;;;;10.70;7.30;;;16.10;99.90;;;;;;5078817;28;20452;-61
2023/07/31 06:46:25;;;;;;;11.40;7.17;;;16.10;99.90;;;;;;5078510;28;20439;-61
2023/07/31 06:48:52;;;;;;;9.30;7.67;;;16.00;99.90;;;;;;5077223;28;20536;-61
2023/07/31 06:51:19;;;;;;;9.93;7.00;;;16.00;99.90;;;;;;5075902;28;20479;-60
2023/07/31 06:53:46;;;;;;;12.13;7.87;;;16.00;99.90;;;;;;5076063;28;20444;-60
2023/07/31 06:56:13;;;;;;;8.37;6.90;;;16.00;99.90;;;;;;5083731;22;20865;-66
2023/07/31 06:58:40;;;;;;;10.13;7.37;;;16.00;99.90;;;;;;5054047;28;20449;-67
2023/07/31 07:01:07;;;;;;;10.60;7.80;;;15.90;99.90;;;;;;5054007;28;20543;-68
2023/07/31 07:03:35;;;;;;;12.50;8.50;;;15.90;99.90;;;;;;5053857;28;20429;-67
2023/07/31 07:06:02;;;;;;;9.83;8.27;;;15.90;99.90;;;;;;5053529;28;20460;-67
2023/07/31 07:08:29;;;;;;;13.13;8.83;;;15.90;99.90;;;;;;5054138;28;20436;-67
2023/07/31 07:10:55;;;;;;;9.17;8.00;;;15.90;99.90;;;;;;5054019;28;20482;-67
2023/07/31 07:13:23;;;;;;;11.10;8.70;;;15.90;99.90;;;;;;5054602;28;20583;-68
2023/07/31 07:15:50;;;;;;;12.23;9.40;;;15.90;99.90;;;;;;5054130;28;20467;-68
2023/07/31 07:18:17;;;;;;;12.43;10.23;;;16.00;99.90;;;;;;5053929;28;20463;-66
2023/07/31 07:20:50;;;;;;;14.37;9.83;;;16.00;99.90;;;;;;5053713;28;20448;-67
2023/07/31 07:23:16;;;;;;;12.63;10.20;;;16.10;99.90;;;;;;5053554;28;20519;-67
2023/07/31 07:25:43;;;;;;;13.50;10.37;;;16.10;99.90;;;;;;5054451;28;20468;-67
2023/07/31 07:28:10;;;;;;;14.33;10.83;;;16.10;99.90;;;;;;5054692;28;20448;-66
2023/07/31 07:30:37;;;;;;;12.83;10.50;;;16.10;99.90;;;;;;5054301;28;20526;-67
2023/07/31 07:33:04;;;;;;;12.20;9.73;;;16.00;99.90;;;;;;5054877;28;20448;-69
2023/07/31 07:35:31;;;;;;;15.80;11.17;;;16.10;99.90;;;;;;5054805;28;20506;-68
2023/07/31 07:38:00;;;;;;;15.17;11.90;;;16.20;99.90;;;;;;5054273;28;20444;-68
2023/07/31 07:40:27;;;;;;;15.20;10.93;;;16.30;99.90;;;;;;5054565;28;20472;-68
2023/07/31 07:42:54;;;;;;;22.17;11.40;;;16.50;99.90;;;;;;5053522;28;20829;-68
2023/07/31 07:45:21;;;;;;;14.80;10.10;;;16.70;99.90;;;;;;5053234;28;20444;-67
2023/07/31 07:47:47;;;;;;;11.90;10.70;;;16.80;99.90;;;;;;5057396;28;20879;-67
2023/07/31 07:50:14;;;;;;;14.03;11.23;;;17.00;99.90;;;;;;5053267;28;20448;-66
2023/07/31 07:52:41;;;;;;;10.57;9.47;;;17.20;99.90;;;;;;5053574;28;20484;-67
2023/07/31 07:55:09;;;;;;;11.03;8.30;;;17.40;99.90;;;;;;5053940;28;20448;-68
2023/07/31 07:57:36;;;;;;;11.80;8.60;;;17.60;99.90;;;;;;5052844;28;20977;-68
2023/07/31 08:00:04;;;;;;;10.20;9.20;;;17.70;99.90;;;;;;5053347;28;20479;-68
2023/07/31 08:02:30;;;;;;;10.93;9.53;;;17.90;99.90;;;;;;5053133;28;20444;-69
2023/07/31 08:05:00;;;;;;;9.63;7.90;;;17.90;99.90;;;;;;5053148;28;20444;-67
2023/07/31 08:07:27;;;;;;;9.50;7.53;;;18.10;99.90;;;;;;5052988;28;20470;-66
2023/07/31 08:09:53;;;;;;;10.23;7.67;;;18.10;99.90;;;;;;5052888;28;20448;-66
2023/07/31 08:12:22;;;;;;;9.23;6.50;;;18.10;99.90;;;;;;5053404;28;20480;-67
2023/07/31 08:14:48;;;;;;;8.17;6.43;;;18.00;99.90;;;;;;5053982;28;20448;-69
2023/07/31 08:17:15;;;;;;;10.00;7.90;;;18.00;99.90;;;;;;5054113;28;20470;-66
2023/07/31 08:19:42;;;;;;;9.53;6.47;;;18.00;99.90;;;;;;5053858;28;20440;-68
2023/07/31 08:22:09;;;;;;;6.93;5.70;;;18.00;99.90;;;;;;5053879;28;20444;-67
2023/07/31 08:24:36;;;;;;;6.73;5.77;;;18.10;99.90;;;;;;5054221;28;20448;-66
2023/07/31 08:27:03;;;;;;;7.00;5.57;;;18.10;99.90;;;;;;5053635;28;20547;-67
2023/07/31 08:29:31;;;;;;;8.00;6.03;;;18.00;99.90;;;;;;5054812;28;20489;-67
2023/07/31 08:31:58;;;;;;;7.73;5.00;;;18.00;99.90;;;;;;5053784;28;20565;-68
2023/07/31 08:34:25;;;;;;;8.90;5.63;;;18.10;99.90;;;;;;5053552;28;20530;-66
2023/07/31 08:36:52;;;;;;;6.60;5.33;;;18.10;99.90;;;;;;5053087;28;20460;-67
2023/07/31 08:39:18;;;;;;;8.57;6.40;;;18.10;99.90;;;;;;5052944;28;20444;-67
2023/07/31 08:41:45;;;;;;;8.37;5.50;;;18.30;99.90;;;;;;5053615;28;20440;-67
2023/07/31 08:44:14;;;;;;;9.63;5.70;;;18.40;99.90;;;;;;5053295;28;20448;-68
2023/07/31 08:46:43;;;;;;;11.03;5.57;;;18.50;99.90;;;;;;5052753;28;20464;-66
2023/07/31 08:49:11;;;;;;;8.00;5.00;;;18.40;99.90;;;;;;5052680;28;20440;-67
2023/07/31 08:51:38;;;;;;;8.47;5.43;;;18.30;99.90;;;;;;5052888;28;20471;-68
2023/07/31 08:54:05;;;;;;;11.13;5.27;;;18.20;99.90;;;;;;5052812;28;20539;-67
2023/07/31 08:56:33;;;;;;;7.17;5.30;;;18.10;99.90;;;;;;5052861;28;20854;-67
2023/07/31 08:59:03;;;;;;;8.47;5.07;;;18.10;99.90;;;;;;5056615;28;20547;-67
2023/07/31 09:01:31;;;;;;;6.43;4.87;;;18.20;99.90;;;;;;5056336;28;20499;-66
2023/07/31 09:04:02;;;;;;;7.07;5.07;;;18.50;99.90;;;;;;5057389;28;20851;-67
2023/07/31 09:06:30;;;;;;;9.63;6.63;;;18.70;99.90;;;;;;5056862;28;21040;-66
2023/07/31 09:08:57;;;;;;;8.63;5.60;;;18.80;99.90;;;;;;5056866;28;20464;-67
2023/07/31 09:11:25;;;;;;;11.13;4.73;;;18.80;99.90;;;;;;5056115;28;20955;-66
2023/07/31 09:13:53;;;;;;;7.07;4.53;;;18.70;99.90;;;;;;5055975;28;21028;-66
2023/07/31 09:16:27;;;;;;;6.37;5.70;;;18.60;99.90;;;;;;5056160;28;20467;-66
2023/07/31 09:18:56;;;;;;;8.43;4.93;;;18.70;99.90;;;;;;5056192;28;20945;-66
2023/07/31 09:21:25;;;;;;;5.80;5.10;;;18.80;99.90;;;;;;5056267;28;20440;-67
2023/07/31 09:23:54;;;;;;;7.47;5.30;;;19.00;99.90;;;;;;5056025;28;20456;-67
2023/07/31 09:26:30;;;;;;;5.37;4.50;;;19.20;99.90;;;;;;5056348;28;20472;-65
2023/07/31 09:28:57;;;;;;;8.50;5.53;;;19.30;99.90;;;;;;5056693;28;20447;-66
2023/07/31 09:31:40;;;;;;;5.13;4.13;;;19.40;99.90;;;;;;5056256;28;20513;-66
2023/07/31 09:34:06;;;;;;;5.40;4.70;;;19.40;99.90;;;;;;5056233;28;20429;-67
2023/07/31 09:36:41;;;;;;;6.57;4.20;;;19.30;99.90;;;;;;5056106;28;20466;-66
2023/07/31 09:39:10;;;;;;;6.40;4.57;;;19.30;99.90;;;;;;5056076;28;20978;-68
2023/07/31 09:41:38;;;;;;;5.47;4.10;;;19.20;99.90;;;;;;5055966;28;20440;-67
2023/07/31 09:44:05;;;;;;;3.80;3.10;;;19.10;99.90;;;;;;5055876;28;20444;-67
2023/07/31 09:46:32;;;;;;;4.40;3.80;;;19.10;99.90;;;;;;5056335;28;20468;-66
2023/07/31 09:49:06;;;;;;;6.40;3.47;;;19.00;99.90;;;;;;5056754;28;20441;-66
2023/07/31 09:51:38;;;;;;;5.70;3.50;;;18.90;99.90;;;;;;5055525;28;20460;-65
2023/07/31 09:54:10;;;;;;;3.00;2.70;;;18.90;99.90;;;;;;5056307;28;20428;-66
2023/07/31 09:56:39;;;;;;;3.80;2.97;;;19.00;99.90;;;;;;5055955;28;20515;-68
2023/07/31 09:59:08;;;;;;;2.67;2.47;;;18.90;99.90;;;;;;5055888;28;20447;-67
2023/07/31 10:01:35;;;;;;;2.83;2.20;;;18.80;99.90;;;;;;5054901;28;20968;-65
2023/07/31 10:04:02;;;;;;;2.83;2.60;;;18.80;99.90;;;;;;5055714;28;20436;-66
2023/07/31 10:06:29;;;;;;;3.07;2.30;;;18.70;99.90;;;;;;5055586;28;20468;-66
2023/07/31 10:08:58;;;;;;;2.97;2.50;;;18.70;99.90;;;;;;5054551;28;20441;-64
2023/07/31 10:11:28;;;;;;;2.67;1.80;;;18.80;99.90;;;;;;5055157;28;20956;-66
2023/07/31 10:13:55;;;;;;;2.70;2.17;;;18.80;99.90;;;;;;5055162;28;20447;-66
2023/07/31 10:16:23;;;;;;;2.23;2.00;;;18.90;99.90;;;;;;5055929;28;20455;-65
2023/07/31 10:18:51;;;;;;;2.67;2.07;;;19.00;99.90;;;;;;5054820;28;20849;-66
2023/07/31 10:21:19;;;;;;;2.37;2.10;;;19.00;99.90;;;;;;5054519;28;20872;-66
2023/07/31 10:23:47;;;;;;;2.77;1.70;;;19.10;99.90;;;;;;5054799;28;20811;-66
2023/07/31 10:26:19;;;;;;;2.63;1.70;;;19.10;99.90;;;;;;5055053;28;20464;-64
2023/07/31 10:28:49;;;;;;;3.00;2.47;;;19.20;99.90;;;;;;5054529;28;20933;-67
2023/07/31 10:31:16;;;;;;;2.90;2.33;;;19.30;99.90;;;;;;5054732;28;20440;-66
2023/07/31 10:33:43;;;;;;;2.90;2.43;;;19.30;99.90;;;;;;5055099;28;20483;-65
2023/07/31 10:36:14;;;;;;;2.47;1.70;;;19.40;99.90;;;;;;5055394;28;20461;-66
2023/07/31 10:38:41;;;;;;;1.90;1.80;;;19.40;99.90;;;;;;5054831;28;20524;-64
2023/07/31 10:41:11;;;;;;;2.60;2.13;;;19.40;99.90;;;;;;5055048;28;20498;-64
2023/07/31 10:43:39;;;;;;;3.70;2.07;;;19.50;99.90;;;;;;5054817;28;20436;-65
2023/07/31 10:46:12;;;;;;;2.00;1.80;;;19.50;99.90;;;;;;5055347;28;20469;-65
2023/07/31 10:48:41;;;;;;;2.17;1.70;;;19.70;99.90;;;;;;5055063;28;20451;-66
2023/07/31 10:51:10;;;;;;;2.50;1.70;;;19.80;99.90;;;;;;5055875;28;20534;-65
2023/07/31 10:53:38;;;;;;;4.43;2.07;;;19.80;99.90;;;;;;5055889;28;20479;-64
2023/07/31 10:56:05;;;;;;;3.93;1.43;;;19.80;99.90;;;;;;5055380;28;20467;-65
2023/07/31 10:58:34;;;;;;;2.90;1.60;;;19.70;99.90;;;;;;5055841;28;20551;-65
2023/07/31 11:01:04;;;;;;;2.37;2.10;;;19.70;99.90;;;;;;5055055;28;20476;-65
2023/07/31 11:03:45;;;;;;;2.67;2.00;;;19.80;99.90;;;;;;5055244;28;20436;-66
2023/07/31 11:06:12;;;;;;;3.13;2.47;;;19.80;99.90;;;;;;5054302;28;20968;-65
2023/07/31 11:08:43;;;;;;;3.83;2.10;;;19.80;99.90;;;;;;5053925;28;20539;-64
2023/07/31 11:11:12;;;;;;;2.10;1.77;;;19.80;99.90;;;;;;5054049;28;20428;-66
2023/07/31 11:13:44;;;;;;;2.37;2.17;;;19.90;99.90;;;;;;5054431;28;20571;-65
2023/07/31 11:16:14;;;;;;;2.40;1.70;;;20.00;99.90;;;;;;5054185;28;20564;-63
2023/07/31 11:18:43;;;;;;;2.77;2.37;;;20.10;99.90;;;;;;5054188;28;20436;-64
2023/07/31 11:21:14;;;;;;;2.43;1.80;;;20.10;99.90;;;;;;5053462;28;20429;-65
2023/07/31 11:23:41;;;;;;;3.40;2.17;;;20.20;99.90;;;;;;5053785;28;20513;-65
2023/07/31 11:26:08;;;;;;;2.20;2.00;;;20.20;99.90;;;;;;5053908;28;20465;-65
2023/07/31 11:28:36;;;;;;;2.77;2.10;;;20.30;99.90;;;;;;5054064;28;20445;-65
2023/07/31 11:31:03;;;;;;;2.33;2.10;;;20.30;99.90;;;;;;5053946;28;20935;-65
2023/07/31 11:33:31;;;;;;;1.97;1.73;;;20.40;99.90;;;;;;5054052;28;20481;-64
2023/07/31 11:35:58;;;;;;;3.17;2.43;;;20.30;99.90;;;;;;5053874;28;20537;-65
2023/07/31 11:38:27;;;;;;;3.77;2.40;;;20.00;99.90;;;;;;5054252;28;20452;-64
2023/07/31 11:40:54;;;;;;;3.13;2.30;;;19.80;99.90;;;;;;5053522;28;20455;-66
2023/07/31 11:43:22;;;;;;;2.50;2.30;;;19.70;99.90;;;;;;5053888;28;20436;-65
2023/07/31 11:45:49;;;;;;;3.13;2.00;;;19.70;99.90;;;;;;5053315;28;20550;-65
2023/07/31 11:48:21;;;;;;;2.67;2.23;;;19.70;99.90;;;;;;5053401;28;20444;-65
2023/07/31 11:50:50;;;;;;;3.07;2.37;;;19.80;99.90;;;;;;5053776;28;20444;-63
2023/07/31 11:53:21;;;;;;;3.03;1.73;;;19.90;99.90;;;;;;5053427;28;21080;-64
2023/07/31 11:55:49;;;;;;;2.70;1.93;;;20.00;99.90;;;;;;5054397;28;20464;-64
2023/07/31 11:58:17;;;;;;;2.97;2.00;;;20.10;99.90;;;;;;5053715;28;20426;-65
2023/07/31 12:00:44;;;;;;;2.67;2.30;;;20.30;99.90;;;;;;5054639;28;20440;-62
2023/07/31 12:03:11;;;;;;;2.00;1.80;;;20.40;99.90;;;;;;5055486;28;20901;-62
2023/07/31 12:05:38;;;;;;;2.37;1.80;;;20.60;99.90;;;;;;5055408;28;20448;-64
2023/07/31 12:08:12;;;;;;;3.30;2.27;;;20.70;99.90;;;;;;5055741;28;20468;-63
2023/07/31 12:10:40;;;;;;;3.20;1.60;;;20.90;99.90;;;;;;5055260;28;20432;-63
2023/07/31 12:13:13;;;;;;;2.90;1.60;;;21.00;99.90;;;;;;5053737;28;20490;-61
2023/07/31 12:15:41;;;;;;;3.47;2.03;;;21.00;99.90;;;;;;5053406;28;20431;-64
2023/07/31 12:18:10;;;;;;;1.87;1.60;;;21.00;99.90;;;;;;5054657;28;20794;-64
2023/07/31 12:20:42;;;;;;;2.07;1.80;;;21.00;99.90;;;;;;5053519;28;20451;-63
2023/07/31 12:23:16;;;;;;;2.20;1.80;;;20.90;99.90;;;;;;5054892;28;20444;-64
2023/07/31 12:25:42;;;;;;;1.57;1.47;;;20.70;99.90;;;;;;5053490;28;20468;-63
2023/07/31 12:28:12;;;;;;;2.10;1.90;;;20.60;99.90;;;;;;5053354;28;20445;-64
2023/07/31 12:30:40;;;;;;;1.60;1.50;;;20.60;99.90;;;;;;5053528;28;20487;-64
2023/07/31 12:33:08;;;;;;;1.80;1.50;;;20.60;99.90;;;;;;5056328;28;20921;-65
2023/07/31 12:35:38;;;;;;;2.10;1.80;;;20.50;99.90;;;;;;5058043;28;20520;-63
2023/07/31 12:38:05;;;;;;;1.40;1.10;;;20.40;99.90;;;;;;5059661;28;20543;-63
2023/07/31 12:40:34;;;;;;;2.17;1.97;;;20.40;99.90;;;;;;5058552;28;20526;-64
2023/07/31 12:43:03;;;;;;;2.63;1.70;;;20.40;99.90;;;;;;5060554;28;20515;-63
2023/07/31 12:45:30;;;;;;;1.80;1.20;;;20.40;99.90;;;;;;5058786;28;20448;-64
2023/07/31 12:47:57;;;;;;;1.50;1.40;;;20.30;99.90;;;;;;5058857;28;20441;-64
2023/07/31 12:50:25;;;;;;;2.07;1.47;;;20.40;99.90;;;;;;5057931;28;20447;-63